< < Back
Terminal Aerodrome Forecast


Current Version              Previous Versions:   1  2  3  4  5  6  7  8  9  

Terminal Aerodrome Forecast

495
FTUS44 KMOB 171700
TAFPNS
TAF
KPNS 171725Z 1718/1818 36003KT P6SM BKN250
     FM181500 05004KT P6SM BKN250=



Latest METAR

632
SAUS70 KWBC 172100 RRX
MTRPNS
METAR KPNS 182053Z 17004KT 10SM CLR 16/05 A3012 RMK AO2 SLP202 T01560050
56018


USA.gov is the U.S. government's official web portal to all federal, state and local government web resources and services.